Merida, Mexico

9:54 PM EST on May 04, 2015 (GMT -0500)
San Damian | | Change Station
CLOSE
Current Station
Personal Weather Station
Location: Mérida, YUCATáN
Elevation: 30 ft
Nearby Weather Stations

Elev 30 ft 20.99 °N, 89.65 °W | Updated 2 seconds ago

Scattered Clouds
Scattered Clouds
81.5 °F
Feels Like 85 °F
N
5.0
Wind Variable Wind from NE
Gusts 13.0 mph

Today
High -- | Low -- °F
--% Chance of Precip.
Yesterday
High -- | Low -- °F
Precip. -- in
6:26 AM 7:24 PM
Full, 99% visible
Pressure 29.93 in
Visibility 7.0 miles
Clouds Scattered Clouds 7000 ft
Heat Index 85 °F
Dew Point 68 °F
Humidity 65%
Rainfall 0.00 in
Snow Depth Not available.
UV 0 out of 12
Pollen Not available.
Air Quality Not available.
Flu Activity Not available.
METAR MMMD 050043Z 05020KT 7SM SCT070 28/18 A2993 RMK 8/070

More Conditions Fewer Conditions

Pressure 29.93 in
Visibility 7.0 miles
Clouds Scattered Clouds 7000 ft
Heat Index 85 °F
Dew Point 68 °F
Humidity 65%
Rainfall 0.00 in
Snow Depth Not available.
UV 0 out of 12
Pollen Not available.
Air Quality Not available.
Flu Activity Not available.
METAR MMMD 050043Z 05020KT 7SM SCT070 28/18 A2993 RMK 8/070

More Conditions Fewer Conditions

10-Day Weather Forecast

Almanac

Astronomy

May. 04, 2015 Rise Set
Actual Time
Civil Twilight
Nautical Twilight
Astronomical Twilight
Moon
Length of Visible Light
Length of Day
Tomorrow will be .
, % of the Moon is Illuminated

Today's Extremes

Country Highs Country Lows

Community

WunderPhotos

Upload Photos

1,818,793 photos uploaded!

WunderBlogs® & News

Nearby

Air Quality

  Air Quality AQ Index Pollutant
Not available.

Snow Depth

Station Depth Elevation

Earthquake Activity

City Distance Mag. Time & Date
Minimum magnitude displayed is 2.5.

Coastal Water Temperatures

Place Temperature

Stations

Nearby Weather Stations

Station Location Temp. Windchill Dew Point Humidity Wind Precip. Elev Updated Type